sensor_id;sensor_type;location;lat;lon;timestamp;P1;durP1;ratioP1;P2;durP2;ratioP2
73239;SDS011;61452;40.054;4.110;2022-07-29T00:01:57;5.53;;;3.30;;
73239;SDS011;61452;40.054;4.110;2022-07-29T00:06:59;7.55;;;3.60;;
73239;SDS011;61452;40.054;4.110;2022-07-29T00:12:02;6.53;;;3.53;;
73239;SDS011;61452;40.054;4.110;2022-07-29T00:17:04;8.00;;;3.75;;
73239;SDS011;61452;40.054;4.110;2022-07-29T00:22:07;6.00;;;2.92;;
73239;SDS011;61452;40.054;4.110;2022-07-29T00:27:09;7.47;;;3.58;;
73239;SDS011;61452;40.054;4.110;2022-07-29T00:32:11;5.47;;;3.60;;
73239;SDS011;61452;40.054;4.110;2022-07-29T00:37:14;5.50;;;3.45;;
73239;SDS011;61452;40.054;4.110;2022-07-29T00:42:16;4.45;;;3.30;;
73239;SDS011;61452;40.054;4.110;2022-07-29T00:47:19;6.75;;;3.70;;
73239;SDS011;61452;40.054;4.110;2022-07-29T00:52:21;6.63;;;3.90;;
73239;SDS011;61452;40.054;4.110;2022-07-29T00:57:24;7.65;;;3.42;;
73239;SDS011;61452;40.054;4.110;2022-07-29T01:02:26;6.93;;;4.45;;
73239;SDS011;61452;40.054;4.110;2022-07-29T01:07:28;8.95;;;3.85;;
73239;SDS011;61452;40.054;4.110;2022-07-29T01:12:32;7.53;;;3.90;;
73239;SDS011;61452;40.054;4.110;2022-07-29T01:33:43;7.15;;;4.15;;
73239;SDS011;61452;40.054;4.110;2022-07-29T01:38:54;7.50;;;4.53;;
73239;SDS011;61452;40.054;4.110;2022-07-29T01:44:54;9.52;;;3.88;;
73239;SDS011;61452;40.054;4.110;2022-07-29T01:49:35;6.45;;;4.15;;
73239;SDS011;61452;40.054;4.110;2022-07-29T01:54:45;8.70;;;4.15;;
73239;SDS011;61452;40.054;4.110;2022-07-29T01:59:56;9.43;;;4.30;;
73239;SDS011;61452;40.054;4.110;2022-07-29T02:05:00;8.43;;;4.05;;
73239;SDS011;61452;40.054;4.110;2022-07-29T02:10:04;9.32;;;4.00;;
73239;SDS011;61452;40.054;4.110;2022-07-29T02:15:10;5.45;;;3.80;;
73239;SDS011;61452;40.054;4.110;2022-07-29T02:20:16;7.85;;;4.28;;
73239;SDS011;61452;40.054;4.110;2022-07-29T02:25:19;8.32;;;3.90;;
73239;SDS011;61452;40.054;4.110;2022-07-29T02:30:24;13.15;;;4.20;;
73239;SDS011;61452;40.054;4.110;2022-07-29T02:35:28;9.93;;;3.95;;
73239;SDS011;61452;40.054;4.110;2022-07-29T02:40:36;7.65;;;4.43;;
73239;SDS011;61452;40.054;4.110;2022-07-29T02:45:40;7.53;;;4.18;;
73239;SDS011;61452;40.054;4.110;2022-07-29T02:50:47;9.32;;;4.63;;
73239;SDS011;61452;40.054;4.110;2022-07-29T02:55:58;8.75;;;4.25;;
73239;SDS011;61452;40.054;4.110;2022-07-29T03:01:03;9.57;;;4.30;;
73239;SDS011;61452;40.054;4.110;2022-07-29T03:06:09;8.35;;;5.07;;
73239;SDS011;61452;40.054;4.110;2022-07-29T03:11:34;15.18;;;4.93;;
73239;SDS011;61452;40.054;4.110;2022-07-29T03:16:51;18.60;;;4.45;;
73239;SDS011;61452;40.054;4.110;2022-07-29T03:26:58;8.88;;;4.60;;
73239;SDS011;61452;40.054;4.110;2022-07-29T03:32:04;6.65;;;4.20;;
73239;SDS011;61452;40.054;4.110;2022-07-29T03:37:09;10.32;;;4.68;;
73239;SDS011;61452;40.054;4.110;2022-07-29T03:42:12;7.25;;;4.05;;
73239;SDS011;61452;40.054;4.110;2022-07-29T03:47:17;6.55;;;4.10;;
73239;SDS011;61452;40.054;4.110;2022-07-29T03:52:45;9.63;;;3.80;;
73239;SDS011;61452;40.054;4.110;2022-07-29T03:57:48;6.85;;;4.10;;
73239;SDS011;61452;40.054;4.110;2022-07-29T04:02:51;8.00;;;4.82;;
73239;SDS011;61452;40.054;4.110;2022-07-29T04:07:53;6.03;;;4.28;;
73239;SDS011;61452;40.054;4.110;2022-07-29T04:12:58;11.18;;;5.15;;
73239;SDS011;61452;40.054;4.110;2022-07-29T04:18:28;8.98;;;4.32;;
73239;SDS011;61452;40.054;4.110;2022-07-29T04:23:44;8.10;;;4.43;;
73239;SDS011;61452;40.054;4.110;2022-07-29T04:29:07;9.82;;;4.75;;
73239;SDS011;61452;40.054;4.110;2022-07-29T04:34:09;12.02;;;4.43;;
73239;SDS011;61452;40.054;4.110;2022-07-29T04:39:12;8.65;;;4.30;;
73239;SDS011;61452;40.054;4.110;2022-07-29T04:44:19;8.23;;;4.40;;
73239;SDS011;61452;40.054;4.110;2022-07-29T04:49:29;7.97;;;4.40;;
73239;SDS011;61452;40.054;4.110;2022-07-29T04:54:31;7.50;;;4.10;;
73239;SDS011;61452;40.054;4.110;2022-07-29T05:04:37;7.00;;;4.15;;
73239;SDS011;61452;40.054;4.110;2022-07-29T05:09:39;10.13;;;4.25;;
73239;SDS011;61452;40.054;4.110;2022-07-29T05:14:41;9.02;;;4.25;;
73239;SDS011;61452;40.054;4.110;2022-07-29T05:19:44;7.70;;;4.10;;
73239;SDS011;61452;40.054;4.110;2022-07-29T05:24:46;6.00;;;4.32;;
73239;SDS011;61452;40.054;4.110;2022-07-29T05:29:49;9.98;;;3.85;;
73239;SDS011;61452;40.054;4.110;2022-07-29T05:34:51;9.98;;;4.97;;
73239;SDS011;61452;40.054;4.110;2022-07-29T05:39:53;5.40;;;4.35;;
73239;SDS011;61452;40.054;4.110;2022-07-29T05:44:57;8.05;;;4.32;;
73239;SDS011;61452;40.054;4.110;2022-07-29T05:50:00;6.45;;;4.32;;
73239;SDS011;61452;40.054;4.110;2022-07-29T05:55:02;6.75;;;3.78;;
73239;SDS011;61452;40.054;4.110;2022-07-29T06:00:07;5.10;;;3.55;;
73239;SDS011;61452;40.054;4.110;2022-07-29T06:05:13;8.98;;;4.22;;
73239;SDS011;61452;40.054;4.110;2022-07-29T06:10:17;7.32;;;4.40;;
73239;SDS011;61452;40.054;4.110;2022-07-29T06:15:24;8.63;;;3.75;;
73239;SDS011;61452;40.054;4.110;2022-07-29T06:20:27;4.70;;;3.88;;
73239;SDS011;61452;40.054;4.110;2022-07-29T06:25:32;6.45;;;3.92;;
73239;SDS011;61452;40.054;4.110;2022-07-29T06:30:37;5.30;;;4.05;;
73239;SDS011;61452;40.054;4.110;2022-07-29T06:35:40;6.28;;;4.13;;
73239;SDS011;61452;40.054;4.110;2022-07-29T06:40:54;5.72;;;3.47;;
73239;SDS011;61452;40.054;4.110;2022-07-29T06:46:03;6.30;;;3.83;;
73239;SDS011;61452;40.054;4.110;2022-07-29T06:51:07;6.95;;;3.60;;
73239;SDS011;61452;40.054;4.110;2022-07-29T07:01:14;4.13;;;3.70;;
73239;SDS011;61452;40.054;4.110;2022-07-29T07:06:17;5.40;;;4.20;;
73239;SDS011;61452;40.054;4.110;2022-07-29T07:11:19;6.38;;;4.40;;
73239;SDS011;61452;40.054;4.110;2022-07-29T07:16:22;5.40;;;3.53;;
73239;SDS011;61452;40.054;4.110;2022-07-29T07:21:24;7.63;;;4.20;;
73239;SDS011;61452;40.054;4.110;2022-07-29T07:26:30;4.15;;;3.45;;
73239;SDS011;61452;40.054;4.110;2022-07-29T07:31:33;5.72;;;3.90;;
73239;SDS011;61452;40.054;4.110;2022-07-29T07:36:35;5.00;;;4.07;;
73239;SDS011;61452;40.054;4.110;2022-07-29T07:41:37;6.47;;;3.85;;
73239;SDS011;61452;40.054;4.110;2022-07-29T07:46:39;4.78;;;3.67;;
73239;SDS011;61452;40.054;4.110;2022-07-29T07:51:42;6.53;;;3.75;;
73239;SDS011;61452;40.054;4.110;2022-07-29T07:56:51;5.47;;;3.80;;
73239;SDS011;61452;40.054;4.110;2022-07-29T08:01:53;4.28;;;3.40;;
73239;SDS011;61452;40.054;4.110;2022-07-29T08:06:57;5.75;;;3.53;;
73239;SDS011;61452;40.054;4.110;2022-07-29T08:12:00;4.63;;;3.58;;
73239;SDS011;61452;40.054;4.110;2022-07-29T08:17:07;5.20;;;3.65;;
73239;SDS011;61452;40.054;4.110;2022-07-29T08:22:09;4.55;;;3.83;;
73239;SDS011;61452;40.054;4.110;2022-07-29T08:27:13;4.03;;;3.63;;
73239;SDS011;61452;40.054;4.110;2022-07-29T08:32:35;4.88;;;3.45;;
73239;SDS011;61452;40.054;4.110;2022-07-29T08:37:54;4.78;;;3.60;;
73239;SDS011;61452;40.054;4.110;2022-07-29T08:42:59;6.18;;;4.10;;
73239;SDS011;61452;40.054;4.110;2022-07-29T08:48:07;4.95;;;3.80;;
73239;SDS011;61452;40.054;4.110;2022-07-29T08:53:11;4.32;;;3.50;;
73239;SDS011;61452;40.054;4.110;2022-07-29T08:58:14;4.18;;;3.50;;
73239;SDS011;61452;40.054;4.110;2022-07-29T09:03:18;6.70;;;3.78;;
73239;SDS011;61452;40.054;4.110;2022-07-29T09:08:21;12.88;;;5.15;;
73239;SDS011;61452;40.054;4.110;2022-07-29T09:13:25;7.22;;;4.55;;
73239;SDS011;61452;40.054;4.110;2022-07-29T09:18:34;6.60;;;4.30;;
73239;SDS011;61452;40.054;4.110;2022-07-29T09:24:04;17.20;;;5.43;;
73239;SDS011;61452;40.054;4.110;2022-07-29T09:29:15;9.07;;;4.70;;
73239;SDS011;61452;40.054;4.110;2022-07-29T09:34:24;10.02;;;5.40;;
73239;SDS011;61452;40.054;4.110;2022-07-29T09:39:40;13.07;;;5.03;;
73239;SDS011;61452;40.054;4.110;2022-07-29T09:44:49;11.32;;;4.65;;
73239;SDS011;61452;40.054;4.110;2022-07-29T09:55:08;8.05;;;4.45;;
73239;SDS011;61452;40.054;4.110;2022-07-29T10:00:20;7.30;;;4.13;;
73239;SDS011;61452;40.054;4.110;2022-07-29T10:05:25;11.13;;;3.90;;
73239;SDS011;61452;40.054;4.110;2022-07-29T10:10:41;7.63;;;4.13;;
73239;SDS011;61452;40.054;4.110;2022-07-29T10:15:44;8.27;;;4.35;;
73239;SDS011;61452;40.054;4.110;2022-07-29T10:20:48;6.68;;;3.85;;
73239;SDS011;61452;40.054;4.110;2022-07-29T10:30:57;7.43;;;3.40;;
73239;SDS011;61452;40.054;4.110;2022-07-29T10:46:44;6.38;;;4.05;;
73239;SDS011;61452;40.054;4.110;2022-07-29T10:56:52;5.80;;;3.80;;
73239;SDS011;61452;40.054;4.110;2022-07-29T11:01:54;4.93;;;3.17;;
73239;SDS011;61452;40.054;4.110;2022-07-29T11:07:17;4.45;;;3.45;;
73239;SDS011;61452;40.054;4.110;2022-07-29T11:22:54;5.72;;;3.50;;
73239;SDS011;61452;40.054;4.110;2022-07-29T11:28:08;4.25;;;3.13;;
73239;SDS011;61452;40.054;4.110;2022-07-29T11:33:33;5.43;;;3.33;;
73239;SDS011;61452;40.054;4.110;2022-07-29T11:39:24;4.57;;;3.15;;
73239;SDS011;61452;40.054;4.110;2022-07-29T11:44:56;7.63;;;2.90;;
73239;SDS011;61452;40.054;4.110;2022-07-29T11:50:31;6.13;;;3.05;;
73239;SDS011;61452;40.054;4.110;2022-07-29T11:55:37;5.18;;;2.97;;
73239;SDS011;61452;40.054;4.110;2022-07-29T12:00:52;5.13;;;3.05;;
73239;SDS011;61452;40.054;4.110;2022-07-29T12:05:56;6.05;;;2.60;;
73239;SDS011;61452;40.054;4.110;2022-07-29T12:10:58;5.07;;;2.72;;
73239;SDS011;61452;40.054;4.110;2022-07-29T12:16:02;5.70;;;2.25;;
73239;SDS011;61452;40.054;4.110;2022-07-29T12:21:05;6.25;;;2.53;;
73239;SDS011;61452;40.054;4.110;2022-07-29T12:26:09;5.15;;;2.30;;
73239;SDS011;61452;40.054;4.110;2022-07-29T12:31:26;5.60;;;2.50;;
73239;SDS011;61452;40.054;4.110;2022-07-29T12:36:45;4.82;;;2.15;;
73239;SDS011;61452;40.054;4.110;2022-07-29T12:41:48;3.63;;;2.20;;
73239;SDS011;61452;40.054;4.110;2022-07-29T12:47:02;3.35;;;2.25;;
73239;SDS011;61452;40.054;4.110;2022-07-29T12:57:27;3.53;;;1.85;;
73239;SDS011;61452;40.054;4.110;2022-07-29T13:07:32;4.43;;;1.80;;
73239;SDS011;61452;40.054;4.110;2022-07-29T13:13:04;3.45;;;2.10;;
73239;SDS011;61452;40.054;4.110;2022-07-29T13:23:28;5.32;;;2.20;;
73239;SDS011;61452;40.054;4.110;2022-07-29T13:28:38;2.20;;;2.00;;
73239;SDS011;61452;40.054;4.110;2022-07-29T13:33:44;3.75;;;2.08;;
73239;SDS011;61452;40.054;4.110;2022-07-29T13:38:47;3.72;;;1.90;;
73239;SDS011;61452;40.054;4.110;2022-07-29T13:43:49;2.67;;;1.92;;
73239;SDS011;61452;40.054;4.110;2022-07-29T13:48:51;2.83;;;1.92;;
73239;SDS011;61452;40.054;4.110;2022-07-29T13:53:54;3.05;;;1.90;;
73239;SDS011;61452;40.054;4.110;2022-07-29T13:58:56;4.47;;;1.98;;
73239;SDS011;61452;40.054;4.110;2022-07-29T14:03:59;3.67;;;1.70;;
73239;SDS011;61452;40.054;4.110;2022-07-29T14:09:02;3.60;;;2.05;;
73239;SDS011;61452;40.054;4.110;2022-07-29T14:14:08;2.70;;;2.28;;
73239;SDS011;61452;40.054;4.110;2022-07-29T14:19:12;4.22;;;1.88;;
73239;SDS011;61452;40.054;4.110;2022-07-29T14:24:14;4.75;;;1.90;;
73239;SDS011;61452;40.054;4.110;2022-07-29T14:29:23;1.90;;;1.58;;
73239;SDS011;61452;40.054;4.110;2022-07-29T14:34:38;3.85;;;1.95;;
73239;SDS011;61452;40.054;4.110;2022-07-29T14:44:43;4.05;;;2.05;;
73239;SDS011;61452;40.054;4.110;2022-07-29T14:49:47;3.67;;;2.00;;
73239;SDS011;61452;40.054;4.110;2022-07-29T14:54:49;3.85;;;2.17;;
73239;SDS011;61452;40.054;4.110;2022-07-29T14:59:52;2.70;;;1.70;;
73239;SDS011;61452;40.054;4.110;2022-07-29T15:04:54;4.10;;;2.15;;
73239;SDS011;61452;40.054;4.110;2022-07-29T15:09:56;3.25;;;2.10;;
73239;SDS011;61452;40.054;4.110;2022-07-29T15:15:00;4.30;;;2.08;;
73239;SDS011;61452;40.054;4.110;2022-07-29T15:20:04;2.83;;;1.90;;
73239;SDS011;61452;40.054;4.110;2022-07-29T15:25:07;3.40;;;1.90;;
73239;SDS011;61452;40.054;4.110;2022-07-29T15:30:10;4.90;;;2.55;;
73239;SDS011;61452;40.054;4.110;2022-07-29T15:35:32;4.20;;;2.40;;
73239;SDS011;61452;40.054;4.110;2022-07-29T15:40:41;6.18;;;2.33;;
73239;SDS011;61452;40.054;4.110;2022-07-29T15:45:45;4.47;;;2.20;;
73239;SDS011;61452;40.054;4.110;2022-07-29T15:51:07;4.53;;;2.10;;
73239;SDS011;61452;40.054;4.110;2022-07-29T15:56:09;5.40;;;2.45;;
73239;SDS011;61452;40.054;4.110;2022-07-29T16:01:12;4.47;;;2.00;;
73239;SDS011;61452;40.054;4.110;2022-07-29T16:06:15;6.55;;;2.40;;
73239;SDS011;61452;40.054;4.110;2022-07-29T16:11:18;4.40;;;2.75;;
73239;SDS011;61452;40.054;4.110;2022-07-29T16:16:20;4.35;;;1.90;;
73239;SDS011;61452;40.054;4.110;2022-07-29T16:21:22;3.78;;;2.42;;
73239;SDS011;61452;40.054;4.110;2022-07-29T16:26:25;8.45;;;2.15;;
73239;SDS011;61452;40.054;4.110;2022-07-29T16:31:28;5.60;;;2.00;;
73239;SDS011;61452;40.054;4.110;2022-07-29T16:36:30;3.05;;;2.00;;
73239;SDS011;61452;40.054;4.110;2022-07-29T16:41:33;3.38;;;2.13;;
73239;SDS011;61452;40.054;4.110;2022-07-29T16:46:35;6.10;;;2.40;;
73239;SDS011;61452;40.054;4.110;2022-07-29T16:51:41;3.25;;;2.08;;
73239;SDS011;61452;40.054;4.110;2022-07-29T16:56:44;3.92;;;2.20;;
73239;SDS011;61452;40.054;4.110;2022-07-29T17:01:46;5.38;;;1.85;;
73239;SDS011;61452;40.054;4.110;2022-07-29T17:06:49;4.30;;;2.03;;
73239;SDS011;61452;40.054;4.110;2022-07-29T17:11:51;4.70;;;1.95;;
73239;SDS011;61452;40.054;4.110;2022-07-29T17:16:56;3.35;;;1.88;;
73239;SDS011;61452;40.054;4.110;2022-07-29T17:22:04;3.47;;;2.15;;
73239;SDS011;61452;40.054;4.110;2022-07-29T17:27:16;3.53;;;2.25;;
73239;SDS011;61452;40.054;4.110;2022-07-29T17:32:18;5.75;;;2.10;;
73239;SDS011;61452;40.054;4.110;2022-07-29T17:37:21;4.20;;;2.10;;
73239;SDS011;61452;40.054;4.110;2022-07-29T17:42:23;2.58;;;2.05;;
73239;SDS011;61452;40.054;4.110;2022-07-29T17:47:25;3.72;;;2.05;;
73239;SDS011;61452;40.054;4.110;2022-07-29T17:52:27;3.08;;;2.00;;
73239;SDS011;61452;40.054;4.110;2022-07-29T17:57:30;4.10;;;2.10;;
73239;SDS011;61452;40.054;4.110;2022-07-29T18:02:32;2.53;;;2.00;;
73239;SDS011;61452;40.054;4.110;2022-07-29T18:07:35;4.45;;;2.33;;
73239;SDS011;61452;40.054;4.110;2022-07-29T18:12:37;3.35;;;1.90;;
73239;SDS011;61452;40.054;4.110;2022-07-29T18:17:39;3.25;;;2.13;;
73239;SDS011;61452;40.054;4.110;2022-07-29T18:22:59;4.05;;;2.05;;
73239;SDS011;61452;40.054;4.110;2022-07-29T18:33:05;3.50;;;2.42;;
73239;SDS011;61452;40.054;4.110;2022-07-29T18:38:24;4.18;;;2.30;;
73239;SDS011;61452;40.054;4.110;2022-07-29T18:43:27;4.25;;;2.03;;
73239;SDS011;61452;40.054;4.110;2022-07-29T18:48:30;4.53;;;2.20;;
73239;SDS011;61452;40.054;4.110;2022-07-29T18:53:34;4.38;;;2.45;;
73239;SDS011;61452;40.054;4.110;2022-07-29T18:58:37;3.08;;;2.10;;
73239;SDS011;61452;40.054;4.110;2022-07-29T19:03:40;2.58;;;2.03;;
73239;SDS011;61452;40.054;4.110;2022-07-29T19:08:42;4.25;;;2.63;;
73239;SDS011;61452;40.054;4.110;2022-07-29T19:13:44;4.53;;;2.10;;
73239;SDS011;61452;40.054;4.110;2022-07-29T19:18:47;3.55;;;2.35;;
73239;SDS011;61452;40.054;4.110;2022-07-29T19:23:49;7.13;;;2.40;;
73239;SDS011;61452;40.054;4.110;2022-07-29T19:29:08;4.07;;;2.13;;
73239;SDS011;61452;40.054;4.110;2022-07-29T19:34:11;4.10;;;2.50;;
73239;SDS011;61452;40.054;4.110;2022-07-29T19:39:13;4.28;;;2.22;;
73239;SDS011;61452;40.054;4.110;2022-07-29T19:44:16;3.72;;;2.03;;
73239;SDS011;61452;40.054;4.110;2022-07-29T19:49:18;4.15;;;2.40;;
73239;SDS011;61452;40.054;4.110;2022-07-29T19:54:20;4.32;;;2.33;;
73239;SDS011;61452;40.054;4.110;2022-07-29T19:59:23;3.85;;;2.17;;
73239;SDS011;61452;40.054;4.110;2022-07-29T20:04:30;5.30;;;2.28;;
73239;SDS011;61452;40.054;4.110;2022-07-29T20:09:33;3.83;;;2.35;;
73239;SDS011;61452;40.054;4.110;2022-07-29T20:14:36;3.67;;;2.65;;
73239;SDS011;61452;40.054;4.110;2022-07-29T20:19:38;4.15;;;2.47;;
73239;SDS011;61452;40.054;4.110;2022-07-29T20:24:41;6.32;;;3.42;;
73239;SDS011;61452;40.054;4.110;2022-07-29T20:29:45;5.85;;;2.45;;
73239;SDS011;61452;40.054;4.110;2022-07-29T20:34:47;6.22;;;2.70;;
73239;SDS011;61452;40.054;4.110;2022-07-29T20:39:49;3.22;;;2.15;;
73239;SDS011;61452;40.054;4.110;2022-07-29T20:44:51;3.30;;;2.33;;
73239;SDS011;61452;40.054;4.110;2022-07-29T20:49:54;3.25;;;2.40;;
73239;SDS011;61452;40.054;4.110;2022-07-29T20:54:57;5.25;;;2.88;;
73239;SDS011;61452;40.054;4.110;2022-07-29T20:59:59;3.25;;;2.35;;
73239;SDS011;61452;40.054;4.110;2022-07-29T21:05:01;7.15;;;3.05;;
73239;SDS011;61452;40.054;4.110;2022-07-29T21:10:04;4.25;;;2.78;;
73239;SDS011;61452;40.054;4.110;2022-07-29T21:15:07;6.53;;;2.85;;
73239;SDS011;61452;40.054;4.110;2022-07-29T21:20:09;7.10;;;2.72;;
73239;SDS011;61452;40.054;4.110;2022-07-29T21:25:12;5.60;;;2.70;;
73239;SDS011;61452;40.054;4.110;2022-07-29T21:30:14;5.22;;;2.90;;
73239;SDS011;61452;40.054;4.110;2022-07-29T21:35:17;5.13;;;2.70;;
73239;SDS011;61452;40.054;4.110;2022-07-29T21:40:39;4.97;;;2.80;;
73239;SDS011;61452;40.054;4.110;2022-07-29T21:45:41;5.63;;;2.83;;
73239;SDS011;61452;40.054;4.110;2022-07-29T21:55:47;4.30;;;2.58;;
73239;SDS011;61452;40.054;4.110;2022-07-29T22:00:56;5.50;;;3.30;;
73239;SDS011;61452;40.054;4.110;2022-07-29T22:05:58;5.40;;;2.97;;
73239;SDS011;61452;40.054;4.110;2022-07-29T22:11:00;5.43;;;2.60;;
73239;SDS011;61452;40.054;4.110;2022-07-29T22:16:03;4.70;;;2.50;;
73239;SDS011;61452;40.054;4.110;2022-07-29T22:21:06;6.97;;;3.20;;
73239;SDS011;61452;40.054;4.110;2022-07-29T22:26:08;6.18;;;2.70;;
73239;SDS011;61452;40.054;4.110;2022-07-29T22:31:10;5.90;;;2.70;;
73239;SDS011;61452;40.054;4.110;2022-07-29T22:36:13;4.72;;;3.20;;
73239;SDS011;61452;40.054;4.110;2022-07-29T22:41:15;6.40;;;2.80;;
73239;SDS011;61452;40.054;4.110;2022-07-29T22:46:18;6.05;;;2.97;;
73239;SDS011;61452;40.054;4.110;2022-07-29T22:51:20;5.30;;;2.95;;
73239;SDS011;61452;40.054;4.110;2022-07-29T22:56:22;3.85;;;2.88;;
73239;SDS011;61452;40.054;4.110;2022-07-29T23:07:20;4.70;;;2.75;;
73239;SDS011;61452;40.054;4.110;2022-07-29T23:12:22;4.53;;;2.75;;
73239;SDS011;61452;40.054;4.110;2022-07-29T23:17:25;4.88;;;3.00;;
73239;SDS011;61452;40.054;4.110;2022-07-29T23:22:27;5.80;;;3.10;;
73239;SDS011;61452;40.054;4.110;2022-07-29T23:27:29;4.90;;;3.20;;
73239;SDS011;61452;40.054;4.110;2022-07-29T23:32:32;5.45;;;3.00;;
73239;SDS011;61452;40.054;4.110;2022-07-29T23:37:34;5.68;;;3.42;;
73239;SDS011;61452;40.054;4.110;2022-07-29T23:42:36;5.20;;;3.30;;
73239;SDS011;61452;40.054;4.110;2022-07-29T23:47:39;5.45;;;3.30;;
73239;SDS011;61452;40.054;4.110;2022-07-29T23:52:42;5.05;;;2.80;;
73239;SDS011;61452;40.054;4.110;2022-07-29T23:57:45;5.43;;;3.20;;
